Etusivu
METAR-TAF:

METAR-TAF

Lentoasemat :

Meadow Lake, Saskatchewan, Kanada

Leveyspiiri: 54-08N, Pituuspiiri: 108-31W, korkeus merenpinnasta: 480 m

Tämänhetkinen sää

Tämä raportti tehtiin 12 tuntia ja 7 minuuttia sitten, kello 00.00 UTC
Tuuli 5 kn lännestä
Lämpötila -10°C
Kosteus 67%
Ilmanpaine 1009 hPa
Näkyvyys: 24.1 km
Hajonneita pilviä 13000 ft:n korkeudessa
Hajonneita pilviä 25000 ft:n korkeudessa

METAR: CYLJ 130000Z 27005KT 15SM BKN130 BKN250 M10/M15 A2980 RMK AC6CI1 CI TR LAST STFD OB/NXT131200UTC SLP130

Aika: 06:07 (12:07 UTC)


TAF: puuttuu

Säähavainnot ja -ennusteet yli 4000 lentoasemalta (METAR- ja TAF-raportit).

Käytössä olevat sääasemat on merkitty karttaan keltaisilla ja punaisilla pisteillä.

Aseta hiiri pisteen päälle nähdäksesi sääaseman nimen.

Klikkaa sitten nähdäksesi säähavainnot ja -ennusteet.

Kartan vaihtaminen: klikkaa mustalla rastilla varustettuja vihreitä pisteitä, niin voit zoomata sisään; viivalla varustettua vihreää pistettä, niin voit zoomata ulos tai vihreitä nuolia, niin pääset viereisille kartoille.


METAR-TAF: